^^
Datos históricos de la estación: Murcia-Puente Tocinos
Diario Informe para Abril 7, 2019 Unidades:  Ingés    Métrico   Ambas
Diario Semanal Mensual Anual
  Máxima: Mínima: Promedio:
Temperatura: 61.3 °F 39.6 °F 49.1 °F
Punto de rocio: 47.5 °F 27.9 °F 34.7 °F
Humedad: 83.3% 30.3% 60%
Velocidad viento: 7.4mph 0mph 3.6mph
Racha viento: 14mph - -
Viento- - SSE
Presión: 30.4 in 30.3 in -
Precipitación: 0 in    
 
 
Tabla de datos para Abril 7, 2019
Hora Temperatura Punto de rocio Presión Viento Velocidad viento Racha viento Humedad Intensidad lluvia(por hora) Nubes
00:04 46 °F 33.4 °F 30.3 in Sur 2 mph 5.2 mph 61.1% 0 in
00:09 45.9 °F 33.6 °F 30.3 in Sur 3 mph 5 mph 62% 0 in
00:14 45.9 °F 33.6 °F 30.3 in Sur 3.6 mph 5 mph 62% 0 in
00:19 45.9 °F 33.6 °F 30.3 in Sur 2.5 mph 3 mph 62% 0 in
00:24 45.9 °F 33.6 °F 30.3 in Sur 2 mph 3.1 mph 62% 0 in
00:29 45.9 °F 33.3 °F 30.3 in Sur 1.6 mph 4.3 mph 61.4% 0 in
00:34 45.7 °F 32.7 °F 30.3 in Oeste 1.4 mph 5 mph 60% 0 in
00:39 45.5 °F 32 °F 30.3 in ONO 2.4 mph 5 mph 59% 0 in
00:44 45.3 °F 31.8 °F 30.3 in OSO 2.9 mph 5.2 mph 59% 0 in
00:49 45.3 °F 31.8 °F 30.3 in OSO 3 mph 5.9 mph 59% 0 in
00:54 45.5 °F 31.8 °F 30.3 in OSO 3.1 mph 6 mph 58.6% 0 in
00:59 45.7 °F 31.5 °F 30.3 in OSO 3 mph 5 mph 57.6% 0 in
01:04 45.9 °F 31.5 °F 30.3 in OSO 2.9 mph 5 mph 57% 0 in
01:09 46 °F 31.8 °F 30.3 in OSO 3 mph 5 mph 57.5% 0 in
01:14 46 °F 32.2 °F 30.3 in OSO 3.1 mph 5 mph 58.3% 0 in
01:19 45.9 °F 32.5 °F 30.3 in SO 2.7 mph 5.2 mph 59.5% 0 in
01:24 45.3 °F 32.5 °F 30.3 in Sur 2.4 mph 5.4 mph 60.7% 0 in
01:29 45 °F 32.7 °F 30.3 in Sur 2.7 mph 5 mph 61.8% 0 in
01:34 44.8 °F 32.7 °F 30.3 in Sur 2.9 mph 3.6 mph 62.6% 0 in
01:39 44.4 °F 32.4 °F 30.3 in Sur 2.5 mph 4 mph 62.4% 0 in
01:44 44.4 °F 32.2 °F 30.3 in Sur 2.4 mph 4.6 mph 61.7% 0 in
01:49 44.8 °F 32.5 °F 30.3 in Sur 2.1 mph 5 mph 62% 0 in
01:54 44.8 °F 32.7 °F 30.3 in Sur 2 mph 5 mph 62.3% 0 in
01:59 44.8 °F 32.9 °F 30.3 in Sur 2.3 mph 5.4 mph 63% 0 in
02:04 44.2 °F 32.5 °F 30.3 in Sur 2.4 mph 6 mph 63% 0 in
02:09 44.1 °F 32.5 °F 30.3 in Sur 3.2 mph 6 mph 63.9% 0 in
02:14 43.7 °F 32.4 °F 30.3 in SSE 3.6 mph 5.2 mph 64% 0 in
02:19 43.3 °F 32.4 °F 30.3 in Sur 3.6 mph 5 mph 64.9% 0 in
02:24 43.2 °F 32.2 °F 30.3 in Sur 3.6 mph 5 mph 65% 0 in
02:29 43 °F 32.2 °F 30.3 in SSE 3.6 mph 5.9 mph 65.6% 0 in
02:34 43 °F 32.4 °F 30.3 in SSE 3.6 mph 6 mph 66% 0 in
02:39 42.8 °F 32.2 °F 30.3 in SE 3.2 mph 5 mph 66% 0 in
02:44 42.6 °F 32 °F 30.3 in SE 2.9 mph 5.2 mph 66% 0 in
02:49 42.3 °F 31.6 °F 30.3 in SE 3 mph 5.2 mph 66% 0 in
02:54 42.1 °F 31.5 °F 30.3 in SSE 3.1 mph 5 mph 65.9% 0 in
02:59 42.3 °F 31.3 °F 30.3 in Sur 3.1 mph 5.8 mph 65% 0 in
03:04 42.4 °F 31.3 °F 30.3 in Sur 3.1 mph 6 mph 64% 0 in
03:09 42.8 °F 31.3 °F 30.3 in Sur 3.9 mph 6 mph 63.3% 0 in
03:14 42.8 °F 31.1 °F 30.3 in Sur 4.3 mph 6.2 mph 62.9% 0 in
03:19 42.8 °F 30.9 °F 30.3 in SSE 4.1 mph 6 mph 62.9% 0 in
03:24 42.6 °F 30.9 °F 30.3 in SSE 4 mph 6 mph 63% 0 in
03:29 42.4 °F 30.9 °F 30.3 in SSE 3.8 mph 5 mph 63.7% 0 in
03:34 42.4 °F 30.7 °F 30.3 in Sur 3.6 mph 5.2 mph 63.2% 0 in
03:39 42.6 °F 30.9 °F 30.3 in SSO 3.6 mph 5.9 mph 63% 0 in
03:44 43 °F 31.1 °F 30.3 in SSO 3.6 mph 6 mph 63% 0 in
03:49 43.2 °F 31.1 °F 30.3 in SSO 3.6 mph 5 mph 62.4% 0 in
03:54 43.3 °F 30.9 °F 30.3 in SSO 3.6 mph 5 mph 61.5% 0 in
03:59 43.5 °F 30.9 °F 30.3 in SO 3.2 mph 5.9 mph 60.7% 0 in
04:04 43.9 °F 30.4 °F 30.3 in SO 3.1 mph 6 mph 58.7% 0 in
04:09 44.1 °F 30.6 °F 30.3 in SO 3.4 mph 6.9 mph 58.8% 0 in
04:14 44.1 °F 30.6 °F 30.3 in Sur 3.6 mph 7 mph 59% 0 in
04:19 43.5 °F 30.6 °F 30.3 in Sur 3.6 mph 5.4 mph 60% 0 in
04:24 43.2 °F 30.4 °F 30.3 in Sur 3.6 mph 6 mph 60.8% 0 in
04:29 42.6 °F 30.6 °F 30.3 in SSE 3.6 mph 6 mph 62.1% 0 in
04:34 42.1 °F 30.6 °F 30.3 in SSE 3.6 mph 6 mph 63.4% 0 in
04:39 41.5 °F 30.4 °F 30.3 in SSE 3.6 mph 5.2 mph 64.7% 0 in
04:44 41 °F 30.4 °F 30.3 in SSE 3.6 mph 5.2 mph 65.8% 0 in
04:49 40.6 °F 30.4 °F 30.3 in SSE 3.6 mph 5.8 mph 66.8% 0 in
04:54 40.6 °F 30.6 °F 30.3 in SSE 3.6 mph 6 mph 67% 0 in
04:59 40.5 °F 30.4 °F 30.3 in Sur 3.9 mph 6.9 mph 67% 0 in
05:04 40.6 °F 30.2 °F 30.3 in Sur 4 mph 7 mph 66.2% 0 in
05:09 40.6 °F 30.2 °F 30.3 in SSE 4.5 mph 7 mph 66% 0 in
05:14 40.6 °F 30.2 °F 30.3 in Sur 4.7 mph 7 mph 66% 0 in
05:19 40.6 °F 30.2 °F 30.3 in Sur 4.5 mph 6.2 mph 65.9% 0 in
05:24 40.8 °F 30 °F 30.3 in SSO 4.3 mph 6.9 mph 65% 0 in
05:29 41.4 °F 30 °F 30.3 in SSO 4.5 mph 7 mph 64% 0 in
05:34 41.4 °F 30 °F 30.3 in SSO 4.7 mph 7 mph 64% 0 in
05:39 41.4 °F 30 °F 30.3 in Sur 3.7 mph 5.2 mph 64% 0 in
05:44 41.4 °F 30 °F 30.3 in SSE 3.1 mph 5 mph 64% 0 in
05:49 41.4 °F 30 °F 30.3 in SSE 3.4 mph 6.4 mph 64% 0 in
05:54 41.2 °F 29.8 °F 30.3 in SSE 3.6 mph 7 mph 64.1% 0 in
05:59 40.6 °F 29.8 °F 30.3 in Sur 4.1 mph 6 mph 65% 0 in
06:04 40.5 °F 29.7 °F 30.3 in SSE 4.3 mph 6.9 mph 65% 0 in
06:09 40.1 °F 29.7 °F 30.3 in SSE 4.3 mph 7.4 mph 65.8% 0 in
06:14 39.7 °F 29.3 °F 30.3 in SSE 4.3 mph 7 mph 66% 0 in
06:19 39.6 °F 29.5 °F 30.3 in SSE 4.3 mph 6 mph 67% 0 in
06:24 39.6 °F 29.5 °F 30.3 in Sur 4.3 mph 6 mph 67% 0 in
06:29 39.6 °F 29.5 °F 30.3 in Sur 3.9 mph 6 mph 67% 0 in
06:34 39.6 °F 29.5 °F 30.3 in SSO 3.6 mph 6.9 mph 67% 0 in
06:39 39.7 °F 29.7 °F 30.3 in Sur 3.9 mph 7 mph 67% 0 in
06:44 39.7 °F 29.8 °F 30.3 in SSE 4 mph 5.9 mph 67% 0 in
06:49 39.9 °F 29.7 °F 30.3 in Sur 4 mph 6.9 mph 66.6% 0 in
06:54 39.9 °F 29.5 °F 30.3 in Sur 4 mph 7 mph 66% 0 in
06:59 39.9 °F 29.5 °F 30.3 in Sur 4.5 mph 6.4 mph 66% 0 in
07:04 39.9 °F 29.5 °F 30.3 in Sur 4.7 mph 7 mph 66% 0 in
07:09 39.9 °F 29.3 °F 30.3 in Sur 4.7 mph 7 mph 65.5% 0 in
07:14 40.1 °F 29.3 °F 30.3 in Sur 4.7 mph 6 mph 65% 0 in
07:19 39.9 °F 29.1 °F 30.3 in Sur 4.5 mph 6.4 mph 65% 0 in
07:24 39.9 °F 28.8 °F 30.3 in Sur 4.3 mph 7 mph 64.2% 0 in
07:29 39.9 °F 28.6 °F 30.3 in Sur 4.5 mph 7.4 mph 63.5% 0 in
07:34 40.5 °F 28.6 °F 30.3 in SSO 4.7 mph 8.1 mph 62.3% 0 in
07:39 40.6 °F 28.2 °F 30.3 in SSO 5.2 mph 8.1 mph 60.8% 0 in
07:44 41.2 °F 28.2 °F 30.3 in SSO 5.4 mph 7.4 mph 60% 0 in
07:49 41.2 °F 28 °F 30.3 in SSO 5 mph 7 mph 59.4% 0 in
07:54 41.5 °F 28 °F 30.3 in SSO 4.7 mph 7.6 mph 58.7% 0 in
07:59 41.5 °F 27.9 °F 30.3 in SSO 5 mph 8.1 mph 58% 0 in
08:04 41.5 °F 27.9 °F 30.3 in Sur 5.2 mph 8 mph 58% 0 in
08:09 41.5 °F 27.9 °F 30.3 in Sur 4.7 mph 6 mph 58% 0 in
08:14 41.5 °F 28.2 °F 30.3 in Sur 4.3 mph 6 mph 58.8% 0 in
08:19 41.4 °F 28 °F 30.3 in Sur 4.3 mph 6.9 mph 59% 0 in
08:24 41.2 °F 28 °F 30.3 in Sur 4.3 mph 7 mph 59% 0 in
08:29 41.4 °F 28 °F 30.3 in Sur 4.5 mph 7 mph 59% 0 in
08:34 41.4 °F 28.2 °F 30.3 in Sur 4.7 mph 7 mph 59% 0 in
08:39 41.5 °F 28.2 °F 30.3 in Sur 4.5 mph 7 mph 59% 0 in
08:44 41.5 °F 28.2 °F 30.3 in SSO 4.3 mph 7 mph 59% 0 in
08:49 41.5 °F 28.2 °F 30.3 in SSO 4.5 mph 7 mph 59% 0 in
08:54 41.7 °F 28.2 °F 30.3 in SSO 4.7 mph 7 mph 58.7% 0 in
08:59 42.1 °F 28.4 °F 30.3 in SSO 4.4 mph 7 mph 57.9% 0 in
09:04 42.4 °F 28.6 °F 30.3 in Sur 4.3 mph 5.8 mph 57.8% 0 in
09:09 42.6 °F 28.8 °F 30.3 in SSO 3.9 mph 6 mph 58% 0 in
09:14 42.6 °F 28.9 °F 30.3 in Sur 3.6 mph 5.8 mph 58% 0 in
09:19 43 °F 29.1 °F 30.3 in SSE 3.6 mph 6 mph 58.1% 0 in
09:24 42.8 °F 29.5 °F 30.3 in Sur 3.6 mph 6 mph 59% 0 in
09:29 42.6 °F 29.3 °F 30.3 in Sur 3.6 mph 6 mph 59% 0 in
09:34 42.6 °F 29.1 °F 30.3 in Sur 3.6 mph 6.9 mph 58.6% 0 in
09:39 42.8 °F 28.9 °F 30.3 in Sur 4 mph 7.4 mph 58% 0 in
09:44 43 °F 29.1 °F 30.3 in Sur 4.3 mph 8.1 mph 58% 0 in
09:49 43 °F 29.3 °F 30.3 in Sur 4.9 mph 8.1 mph 58.2% 0 in
09:54 43.2 °F 29.3 °F 30.3 in SSE 5.2 mph 9.2 mph 57.9% 0 in
09:59 43.3 °F 29.1 °F 30.3 in Sur 5.2 mph 9 mph 57% 0 in
10:04 43.5 °F 29.3 °F 30.3 in Sur 5.2 mph 7 mph 57% 0 in
10:09 43.9 °F 29.7 °F 30.3 in SSE 4.6 mph 8.1 mph 57% 0 in
10:14 44.1 °F 29.8 °F 30.3 in Sur 4.3 mph 8.1 mph 57% 0 in
10:19 44.2 °F 30 °F 30.3 in Sur 4.9 mph 8 mph 57% 0 in
10:24 44.8 °F 30.2 °F 30.3 in Sur 5.2 mph 6.2 mph 56.4% 0 in
10:29 45.3 °F 30.4 °F 30.3 in SSE 4.6 mph 6.9 mph 55.6% 0 in
10:34 45.9 °F 30 °F 30.3 in Sur 4.3 mph 8.5 mph 53.9% 0 in
10:39 46 °F 29.3 °F 30.3 in Sur 5 mph 9 mph 52% 0 in
10:44 46.4 °F 29.3 °F 30.3 in Sur 5.4 mph 9 mph 51.2% 0 in
10:49 46.9 °F 28.9 °F 30.3 in SSO 5 mph 8 mph 49.5% 0 in
10:54 47.1 °F 28.6 °F 30.3 in SSO 4.7 mph 8.1 mph 48.3% 0 in
10:59 47.1 °F 28.8 °F 30.3 in Sur 5 mph 7 mph 48.6% 0 in
11:04 47.7 °F 28.8 °F 30.3 in SO 5.2 mph 6.2 mph 47.9% 0 in
11:09 47.8 °F 28.6 °F 30.3 in SO 4.4 mph 6 mph 47% 0 in
11:14 48.2 °F 28.6 °F 30.3 in SO 4 mph 8.1 mph 46.5% 0 in
11:19 48.6 °F 28.8 °F 30.3 in SSO 4 mph 8.1 mph 46.1% 0 in
11:24 48.9 °F 29.1 °F 30.3 in SO 4 mph 8 mph 45.9% 0 in
11:29 49.5 °F 29.3 °F 30.3 in SO 3.5 mph 6.2 mph 45.5% 0 in
11:34 50 °F 29.3 °F 30.3 in SO 3.1 mph 6 mph 44.8% 0 in
11:39 50.4 °F 29.3 °F 30.3 in OSO 3 mph 5.8 mph 44% 0 in
11:44 50.9 °F 29.5 °F 30.3 in SO 2.9 mph 7.4 mph 43.6% 0 in
11:49 51.4 °F 29.5 °F 30.3 in OSO 3.4 mph 7 mph 42.6% 0 in
11:54 52 °F 29.5 °F 30.3 in Oeste 3.6 mph 6 mph 42% 0 in
11:59 52.3 °F 29.3 °F 30.3 in Oeste 2.7 mph 5 mph 41.1% 0 in
12:04 52.9 °F 29.3 °F 30.3 in SSO 2.4 mph 5.8 mph 40.4% 0 in
12:09 53.2 °F 29.5 °F 30.3 in SSE 2.7 mph 6 mph 40% 0 in
12:14 54 °F 29.5 °F 30.3 in Sur 2.9 mph 6 mph 39.2% 0 in
12:19 54.3 °F 29.8 °F 30.3 in SO 2.5 mph 5.2 mph 38.9% 0 in
12:24 54.9 °F 29.7 °F 30.3 in SSE 2.4 mph 5.8 mph 38% 0 in
12:29 55.2 °F 29.7 °F 30.3 in SSE 3.2 mph 6.2 mph 37.3% 0 in
12:34 55.6 °F 29.7 °F 30.3 in Sur 3.6 mph 6.9 mph 37% 0 in
12:39 55.8 °F 29.5 °F 30.3 in Sur 3.9 mph 8.1 mph 36.5% 0 in
12:44 55.8 °F 29.1 °F 30.3 in Sur 4 mph 8 mph 36% 0 in
12:49 55.9 °F 29.3 °F 30.3 in Sur 4.4 mph 9.2 mph 36% 0 in
12:54 56.1 °F 29.5 °F 30.3 in Sur 4.7 mph 9 mph 36% 0 in
12:59 56.1 °F 28.9 °F 30.3 in SSE 5 mph 9 mph 35.4% 0 in
13:04 56.1 °F 28.8 °F 30.3 in SSE 5.2 mph 7.4 mph 35% 0 in
13:09 56.3 °F 28.4 °F 30.3 in SSO 4.9 mph 7 mph 34.3% 0 in
13:14 56.5 °F 28.4 °F 30.3 in Sur 4.7 mph 7 mph 34% 0 in
13:19 56.8 °F 28.8 °F 30.3 in Sur 3.5 mph 5.2 mph 34.1% 0 in
13:24 57.2 °F 28.6 °F 30.3 in SSE 2.9 mph 5.2 mph 33.3% 0 in
13:29 57.6 °F 28.6 °F 30.3 in SSE 3 mph 5.2 mph 33% 0 in
13:34 57.7 °F 28 °F 30.3 in SE 3.1 mph 5.2 mph 32.1% 0 in
13:39 58.1 °F 28.8 °F 30.3 in SE 2.4 mph 5 mph 32.5% 0 in
13:44 58.5 °F 28.6 °F 30.3 in SSE 2 mph 5 mph 31.8% 0 in
13:49 58.8 °F 28.6 °F 30.3 in SE 2 mph 5 mph 31.4% 0 in
13:54 59.2 °F 28.4 °F 30.3 in SSE 2 mph 5 mph 31% 0 in
13:59 59.5 °F 28.9 °F 30.3 in SSE 0.6 mph 3.1 mph 31% 0 in
14:04 60.1 °F 28.9 °F 30.3 in Calm   5.4 mph 30.5% 0 in
14:09 59.9 °F 28.8 °F 30.3 in NE 1.5 mph 6 mph 30.3% 0 in
14:14 59.7 °F 29.1 °F 30.3 in NE 2.4 mph 5 mph 31% 0 in
14:19 60.1 °F 28.9 °F 30.3 in NE 2.4 mph 5.9 mph 30.6% 0 in
14:24 60.3 °F 29.7 °F 30.3 in ENE 2.4 mph 6.2 mph 31.4% 0 in
14:29 60.4 °F 29.8 °F 30.3 in NE 2.7 mph 6 mph 31.3% 0 in
14:34 60.4 °F 30 °F 30.3 in North 2.9 mph 6 mph 31.5% 0 in
14:39 60.4 °F 30.4 °F 30.3 in NE 3 mph 7.4 mph 31.9% 0 in
14:44 60.6 °F 30.2 °F 30.3 in ENE 3.1 mph 7 mph 31.5% 0 in
14:49 60.6 °F 30.6 °F 30.3 in NNE 3.7 mph 8.1 mph 32% 0 in
14:54 61 °F 30.7 °F 30.3 in NNE 4 mph 8.1 mph 32% 0 in
14:59 61 °F 30.7 °F 30.3 in NE 4.5 mph 8 mph 31.8% 0 in
15:04 61.2 °F 30.7 °F 30.3 in NNE 4.7 mph 10.4 mph 31.7% 0 in
15:09 61.2 °F 30.4 °F 30.3 in NNE 5.2 mph 10 mph 31% 0 in
15:14 61 °F 30.4 °F 30.3 in NNE 5.4 mph 9.2 mph 31.3% 0 in
15:19 61 °F 30.6 °F 30.3 in NNE 5.3 mph 9 mph 31.6% 0 in
15:24 61 °F 30.6 °F 30.3 in NNE 5.2 mph 8.7 mph 31.7% 0 in
15:29 60.8 °F 31.1 °F 30.3 in NE 5.2 mph 9 mph 32.5% 0 in
15:34 61 °F 31.5 °F 30.3 in NE 5.2 mph 9 mph 32.9% 0 in
15:39 61 °F 31.1 °F 30.3 in NE 4.7 mph 9.2 mph 32.2% 0 in
15:44 61 °F 31.3 °F 30.3 in NNE 4.3 mph 9.2 mph 32.4% 0 in
15:49 61 °F 31.3 °F 30.3 in NE 4.9 mph 8.1 mph 32.5% 0 in
15:54 61.2 °F 31.3 °F 30.3 in NE 5.2 mph 11.8 mph 32.4% 0 in
15:59 61.2 °F 30.9 °F 30.3 in NE 5.7 mph 12 mph 32% 0 in
16:04 61.2 °F 30 °F 30.3 in NE 5.9 mph 11.2 mph 30.7% 0 in
16:09 61.2 °F 30.7 °F 30.3 in NE 6.2 mph 11 mph 31.6% 0 in
16:14 61.3 °F 31.8 °F 30.3 in NE 6.4 mph 12.7 mph 32.7% 0 in
16:19 61.2 °F 32.2 °F 30.3 in NNE 6.3 mph 13 mph 33.6% 0 in
16:24 61 °F 33.1 °F 30.3 in NE 6.2 mph 12 mph 34.8% 0 in
16:29 61 °F 33.8 °F 30.3 in NE 6.2 mph 11.2 mph 36.1% 0 in
16:34 60.8 °F 35.1 °F 30.3 in NE 6.2 mph 13 mph 38.3% 0 in
16:39 60.6 °F 36.3 °F 30.3 in NE 7 mph 13 mph 40.4% 0 in
16:44 60.3 °F 37.9 °F 30.3 in NE 7.4 mph 13.7 mph 43.4% 0 in
16:49 60.1 °F 38.3 °F 30.3 in NE 7.1 mph 14 mph 44.5% 0 in
16:54 59.5 °F 39.2 °F 30.3 in NE 6.9 mph 12.3 mph 46.8% 0 in
16:59 59.2 °F 40.5 °F 30.3 in NE 6.9 mph 12.7 mph 49.8% 0 in
17:04 58.8 °F 41.5 °F 30.3 in NE 6.9 mph 13 mph 52.5% 0 in
17:09 58.6 °F 42.3 °F 30.3 in NE 6.5 mph 11.8 mph 54.7% 0 in
17:14 58.5 °F 43.3 °F 30.3 in NE 6.2 mph 12 mph 57.2% 0 in
17:19 58.3 °F 44.4 °F 30.3 in NE 6 mph 10 mph 59.9% 0 in
17:24 57.9 °F 45.1 °F 30.3 in NE 5.9 mph 10 mph 62.3% 0 in
17:29 57.7 °F 45.9 °F 30.3 in NE 5.9 mph 10 mph 64.5% 0 in
17:34 57.6 °F 46.2 °F 30.3 in ENE 5.9 mph 9 mph 65.8% 0 in
17:39 57.4 °F 46.6 °F 30.3 in ENE 4.7 mph 8 mph 66.9% 0 in
17:44 57 °F 46.8 °F 30.3 in ENE 4 mph 6 mph 68.3% 0 in
17:49 56.8 °F 46.9 °F 30.3 in ENE 3.7 mph 6.2 mph 69.5% 0 in
17:54 56.7 °F 47.1 °F 30.3 in NE 3.6 mph 6.2 mph 70.5% 0 in
17:59 56.5 °F 47.3 °F 30.3 in NE 3.6 mph 6 mph 71.3% 0 in
18:04 56.1 °F 47.3 °F 30.3 in ENE 3.6 mph 5.2 mph 72% 0 in
18:09 55.9 °F 47.3 °F 30.3 in ENE 3.3 mph 5 mph 72.6% 0 in
18:14 55.9 °F 47.3 °F 30.3 in ENE 3.1 mph 5 mph 73% 0 in
18:19 55.8 °F 47.5 °F 30.3 in ENE 3 mph 5 mph 73.9% 0 in
18:24 55.6 °F 47.5 °F 30.3 in ENE 2.9 mph 5.2 mph 74% 0 in
18:29 55.2 °F 47.3 °F 30.3 in ENE 2.5 mph 5 mph 74.7% 0 in
18:34 55.2 °F 47.3 °F 30.3 in ENE 2.4 mph 5 mph 75% 0 in
18:39 55 °F 47.3 °F 30.3 in ENE 2.4 mph 5 mph 75.3% 0 in
18:44 54.9 °F 47.5 °F 30.3 in ENE 2.4 mph 3.6 mph 76% 0 in
18:49 54.9 °F 47.5 °F 30.3 in ENE 2.1 mph 4.6 mph 76% 0 in
18:54 54.7 °F 47.3 °F 30.3 in ENE 2 mph 5 mph 76% 0 in
18:59 54.3 °F 47.3 °F 30.3 in ENE 2 mph 3.6 mph 76.8% 0 in
19:04 54.1 °F 47.3 °F 30.3 in ENE 2 mph 4 mph 77.6% 0 in
19:09 54 °F 47.3 °F 30.3 in ENE 1.9 mph 2.3 mph 78% 0 in
19:14 53.8 °F 47.3 °F 30.3 in ENE 1.8 mph 4.6 mph 78.8% 0 in
19:19 53.4 °F 47.1 °F 30.3 in ENE 1.8 mph 5 mph 79% 0 in
19:24 53.2 °F 46.9 °F 30.3 in ENE 1.8 mph 4 mph 79.3% 0 in
19:29 53.1 °F 47.1 °F 30.3 in ENE 1.9 mph 3 mph 80% 0 in
19:34 53.1 °F 47.5 °F 30.3 in ENE 2 mph 3 mph 81% 0 in
19:39 53.1 °F 47.5 °F 30.3 in ENE 1.9 mph 2.3 mph 81% 0 in
19:44 53.1 °F 47.3 °F 30.3 in ENE 1.8 mph 2 mph 81% 0 in
19:49 52.9 °F 47.1 °F 30.3 in ENE 0.7 mph   81% 0 in
19:54 52.9 °F 47.1 °F 30.3 in Calm     81% 0 in
19:59 52.7 °F 46.9 °F 30.3 in Calm     81% 0 in
20:04 52.5 °F 46.9 °F 30.3 in Calm   2.9 mph 81% 0 in
20:09 52.3 °F 46.8 °F 30.3 in ENE 0.9 mph 3.6 mph 81% 0 in
20:14 52.2 °F 46.8 °F 30.3 in ENE 1.4 mph 4.6 mph 81.5% 0 in
20:19 52.2 °F 46.8 °F 30.3 in ENE 2 mph 5 mph 82% 0 in
20:24 52.2 °F 46.8 °F 30.3 in ENE 2.4 mph 5 mph 82% 0 in
20:29 52.2 °F 46.8 °F 30.3 in ENE 2.1 mph 3 mph 82% 0 in
20:34 52 °F 46.6 °F 30.3 in ENE 2 mph 2 mph 81.6% 0 in
20:39 51.6 °F 46 °F 30.3 in ENE 0.7 mph 4.6 mph 81% 0 in
20:44 51.4 °F 45.9 °F 30.3 in Calm   5 mph 81.4% 0 in
20:49 51.3 °F 46 °F 30.3 in ENE 1.2 mph 5 mph 82% 0 in
20:54 51.1 °F 46 °F 30.3 in ENE 2 mph 2 mph 82.7% 0 in
20:59 51.1 °F 46 °F 30.3 in ENE 0.7 mph   83% 0 in
21:04 51.1 °F 46.2 °F 30.4 in Calm     83.3% 0 in
21:09 51.1 °F 46 °F 30.4 in Calm   3.5 mph 83% 0 in
21:14 50.7 °F 45.3 °F 30.4 in Calm   3 mph 82% 0 in
21:19 50.4 °F 45.1 °F 30.4 in SE 0.9 mph 4.6 mph 82% 0 in
21:24 50.2 °F 45.1 °F 30.4 in SSE 1.4 mph 5 mph 82.7% 0 in
21:29 50 °F 45 °F 30.4 in SSE 1.4 mph 2.9 mph 82.8% 0 in
21:34 49.6 °F 44.2 °F 30.4 in SSE 1.4 mph 5.2 mph 81.5% 0 in
21:39 49.5 °F 43.5 °F 30.4 in Sur 2.1 mph 5 mph 80.2% 0 in
21:44 49.1 °F 43.2 °F 30.4 in Sur 2.4 mph 6.9 mph 79.8% 0 in
21:49 48.9 °F 42.6 °F 30.4 in Sur 3.4 mph 7 mph 79% 0 in
21:54 48.9 °F 42.8 °F 30.4 in SSO 4 mph 6.2 mph 79.7% 0 in
21:59 48.9 °F 43 °F 30.4 in Sur 4 mph 6.9 mph 80% 0 in
22:04 48.9 °F 43 °F 30.4 in Sur 4 mph 7 mph 80% 0 in
22:09 48.9 °F 43.2 °F 30.4 in SO 4.2 mph 7 mph 80.2% 0 in
22:14 48.9 °F 43.3 °F 30.4 in SO 4.3 mph 6 mph 81% 0 in
22:19 48.9 °F 43.3 °F 30.4 in SO 3.5 mph 6 mph 81% 0 in
22:24 48.9 °F 43.3 °F 30.4 in SO 3.1 mph 5 mph 81.3% 0 in
22:29 48.9 °F 43.5 °F 30.4 in SO 2.3 mph 5 mph 81.5% 0 in
22:34 48.9 °F 43.7 °F 30.4 in SO 1.8 mph 4.6 mph 82% 0 in
22:39 48.7 °F 43.3 °F 30.4 in SSO 2.2 mph 5 mph 81.4% 0 in
22:44 48.7 °F 43.2 °F 30.4 in SSO 2.4 mph 6.2 mph 81% 0 in
22:49 48.6 °F 43 °F 30.4 in SSO 3.1 mph 6 mph 81% 0 in
22:54 48.4 °F 43 °F 30.4 in SSO 3.6 mph 6 mph 81.6% 0 in
22:59 48.4 °F 43.2 °F 30.4 in SO 3.2 mph 5 mph 82% 0 in
23:04 48.4 °F 43.2 °F 30.4 in SSO 2.9 mph 5 mph 82% 0 in
23:09 48.4 °F 43.2 °F 30.4 in SSO 2.9 mph 6.2 mph 82% 0 in
23:14 48.4 °F 43.2 °F 30.4 in SSO 2.9 mph 7.4 mph 82% 0 in
23:19 48.4 °F 43.2 °F 30.4 in SO 3.6 mph 7 mph 82% 0 in
23:24 48.6 °F 43.2 °F 30.4 in SO 4 mph 6.2 mph 82% 0 in
23:29 48.6 °F 43.3 °F 30.4 in SO 4 mph 6.9 mph 82% 0 in
23:34 48.6 °F 43.3 °F 30.4 in SO 4 mph 7 mph 82% 0 in
23:39 48.6 °F 43.3 °F 30.4 in SO 4 mph 6 mph 82% 0 in
23:44 48.6 °F 43.3 °F 30.4 in SO 4 mph 5.9 mph 82% 0 in
23:49 48.6 °F 43.3 °F 30.4 in SSO 3.4 mph 6 mph 82% 0 in
23:54 48.6 °F 43 °F 30.4 in SSO 3.1 mph 6 mph 81.2% 0 in
23:59 48.6 °F 43 °F 30.4 in SSO 3.1 mph 5 mph 81% 0 in
Murcia-Puente Tocinos, España
Compliments of Weather Underground - 3 mb

La estación de MeteoMurcia.com, publica sus datos en los siguientes proyectos:

Weather Underground PWS IMURCIAP2 Meteoclimatic www.awekas.at

W3Counter
Web Analytics